Time;durP1;ratioP1;P1;durP2;ratioP2;P2;SDS_P1;SDS_P2;PMS_P1;PMS_P2;Temp;Humidity;BMP_temperature;BMP_pressure;BME280_temperature;BME280_humidity;BME280_pressure;Samples;Min_cycle;Max_cycle;Signal;HPM_P1;HPM_P2
2022/03/18 00:00:27;;;;;;;25.88;15.88;;;;;;;6.41;55.14;103811.63;5029398;28;20160;-61
2022/03/18 00:02:53;;;;;;;23.25;14.20;;;;;;;6.43;55.69;103804.91;5031491;28;20059;-61
2022/03/18 00:05:20;;;;;;;24.67;13.23;;;;;;;6.44;55.40;103803.88;5032171;28;20045;-61
2022/03/18 00:07:46;;;;;;;24.92;13.63;;;;;;;6.42;55.47;103807.84;5031187;28;20158;-61
2022/03/18 00:10:13;;;;;;;18.65;12.18;;;;;;;6.39;55.23;103811.75;5030493;28;20026;-62
2022/03/18 00:12:39;;;;;;;22.90;13.02;;;;;;;6.41;55.93;103820.78;5031597;28;20033;-62
2022/03/18 00:15:07;;;;;;;25.55;12.52;;;;;;;6.37;55.58;103825.72;5018297;28;20030;-61
2022/03/18 00:17:32;;;;;;;22.15;13.23;;;;;;;6.36;55.73;103820.34;5020840;28;20037;-62
2022/03/18 00:19:57;;;;;;;19.58;12.55;;;;;;;6.34;55.49;103816.88;5031772;28;20033;-62
2022/03/18 00:22:23;;;;;;;23.17;12.10;;;;;;;6.35;55.70;103833.28;5031585;28;20102;-61
2022/03/18 00:24:48;;;;;;;24.67;12.32;;;;;;;6.29;55.71;103827.50;5030869;28;20022;-62
2022/03/18 00:27:13;;;;;;;23.17;12.18;;;;;;;6.32;55.35;103828.06;5031491;28;20064;-61
2022/03/18 00:29:38;;;;;;;25.58;12.38;;;;;;;6.26;55.12;103825.06;5031271;28;20040;-62
2022/03/18 00:32:04;;;;;;;18.35;11.93;;;;;;;6.31;55.91;103819.94;5028201;28;20029;-62
2022/03/18 00:34:30;;;;;;;19.67;12.05;;;;;;;6.24;55.93;103821.56;5028944;28;20400;-62
2022/03/18 00:37:01;;;;;;;19.50;11.68;;;;;;;6.18;56.16;103819.44;5014017;28;20677;-62
2022/03/18 00:39:27;;;;;;;18.70;11.57;;;;;;;6.14;56.03;103821.63;5010724;28;20040;-62
2022/03/18 00:41:54;;;;;;;20.58;11.00;;;;;;;6.09;55.82;103827.59;5020754;28;20303;-62
2022/03/18 00:44:20;;;;;;;19.80;11.63;;;;;;;6.03;56.02;103824.56;5031527;28;20044;-62
2022/03/18 00:46:46;;;;;;;19.58;11.90;;;;;;;6.01;56.34;103823.81;5029604;28;20037;-62
2022/03/18 00:52:04;;;;;;;24.73;12.52;;;;;;;6.04;56.51;103837.31;5019690;28;20043;-61
2022/03/18 00:54:37;;;;;;;19.13;12.30;;;;;;;6.03;56.07;103838.34;5023448;28;20026;-61
2022/03/18 00:57:23;;;;;;;20.45;12.05;;;;;;;6.10;56.14;103847.75;5032489;28;20079;-62
2022/03/18 00:59:49;;;;;;;21.58;11.40;;;;;;;5.98;57.01;103841.56;5015091;28;20137;-62
2022/03/18 01:02:14;;;;;;;24.25;11.30;;;;;;;6.00;56.31;103838.63;5031545;28;20489;-62
2022/03/18 01:04:39;;;;;;;24.25;11.73;;;;;;;5.96;55.98;103837.19;5031678;28;20083;-63
2022/03/18 01:07:04;;;;;;;17.13;10.93;;;;;;;5.91;55.88;103841.25;5030138;28;20029;-62
2022/03/18 01:09:30;;;;;;;15.23;10.07;;;;;;;5.90;56.51;103855.19;5025466;28;20909;-62
2022/03/18 01:11:56;;;;;;;15.68;9.55;;;;;;;5.88;56.55;103857.22;5031599;28;20103;-62
2022/03/18 01:14:22;;;;;;;20.92;9.25;;;;;;;5.82;56.74;103858.69;5029747;28;20064;-62
2022/03/18 01:16:47;;;;;;;18.02;7.97;;;;;;;5.79;56.80;103858.97;5049914;28;20021;-62
2022/03/18 01:19:12;;;;;;;15.27;8.43;;;;;;;5.78;56.32;103868.25;5031046;28;20488;-62
2022/03/18 01:21:38;;;;;;;16.48;8.10;;;;;;;5.79;56.49;103858.97;5029372;28;20500;-62
2022/03/18 01:24:04;;;;;;;13.77;7.68;;;;;;;5.70;56.43;103861.72;5030089;28;20025;-61
2022/03/18 01:26:29;;;;;;;18.95;7.95;;;;;;;5.65;56.67;103863.03;5029009;28;20041;-62
2022/03/18 01:28:56;;;;;;;18.25;8.77;;;;;;;5.61;56.54;103855.22;5028817;28;20037;-61
2022/03/18 01:31:22;;;;;;;16.80;7.82;;;;;;;5.64;56.46;103857.69;5030685;28;20104;-61
2022/03/18 01:33:47;;;;;;;17.23;8.10;;;;;;;5.67;56.08;103849.13;5030461;28;20106;-62
2022/03/18 01:36:13;;;;;;;14.57;8.18;;;;;;;5.64;56.03;103857.69;5021932;28;20079;-62
2022/03/18 01:38:38;;;;;;;18.85;7.55;;;;;;;5.59;55.97;103852.63;5027318;28;20026;-62
2022/03/18 01:41:04;;;;;;;18.88;7.28;;;;;;;5.55;56.34;103856.69;5028602;28;20053;-63
2022/03/18 01:43:41;;;;;;;22.75;7.63;;;;;;;5.53;56.69;103855.09;5031723;28;20076;-62
2022/03/18 01:46:07;;;;;;;16.73;7.72;;;;;;;5.45;56.51;103855.81;5022869;28;20122;-62
2022/03/18 01:48:32;;;;;;;16.88;7.53;;;;;;;5.44;56.58;103853.22;5018878;28;20034;-62
2022/03/18 01:50:58;;;;;;;18.45;7.38;;;;;;;5.36;56.56;103857.56;5024057;28;20033;-62
2022/03/18 01:53:24;;;;;;;12.40;7.35;;;;;;;5.31;56.75;103870.03;5029644;28;20125;-62
2022/03/18 01:55:49;;;;;;;20.75;7.95;;;;;;;5.28;56.95;103859.31;5029471;28;20029;-62
2022/03/18 01:58:23;;;;;;;13.10;7.28;;;;;;;5.26;56.85;103872.34;5030282;28;20038;-62
2022/03/18 02:00:49;;;;;;;12.70;7.38;;;;;;;5.21;56.87;103859.00;5018919;28;20045;-62
2022/03/18 02:03:14;;;;;;;15.38;8.20;;;;;;;5.20;57.26;103859.16;5028778;28;20067;-63
2022/03/18 02:05:40;;;;;;;14.32;8.75;;;;;;;5.22;56.79;103857.97;5030284;28;20033;-62
2022/03/18 02:08:08;;;;;;;14.60;8.00;;;;;;;5.24;56.91;103861.47;5027124;28;20132;-62
2022/03/18 02:10:37;;;;;;;13.10;7.75;;;;;;;5.24;56.64;103868.88;5020358;28;20105;-62
2022/03/18 02:13:03;;;;;;;13.10;7.55;;;;;;;5.21;56.73;103872.75;5030539;28;20100;-62
2022/03/18 02:15:28;;;;;;;15.27;8.07;;;;;;;5.16;56.50;103867.69;5020091;28;20041;-62
2022/03/18 02:17:53;;;;;;;14.65;8.18;;;;;;;5.14;56.60;103879.84;5019716;28;20037;-62
2022/03/18 02:20:24;;;;;;;12.82;7.88;;;;;;;5.14;56.76;103885.38;5029643;28;20116;-62
2022/03/18 02:22:49;;;;;;;11.75;7.53;;;;;;;5.14;56.33;103888.97;5030207;28;20036;-62
2022/03/18 02:25:15;;;;;;;13.00;8.60;;;;;;;5.09;56.68;103888.56;5027168;28;20029;-62
2022/03/18 02:27:52;;;;;;;12.50;7.78;;;;;;;5.05;56.88;103876.09;5025722;28;20037;-62
2022/03/18 02:30:19;;;;;;;11.40;7.93;;;;;;;5.03;56.68;103885.47;5024341;28;20029;-62
2022/03/18 02:32:44;;;;;;;13.60;8.43;;;;;;;5.01;56.91;103873.75;5029932;28;20025;-62
2022/03/18 02:35:10;;;;;;;11.90;7.82;;;;;;;5.01;57.00;103882.03;5030636;28;20074;-62
2022/03/18 02:37:35;;;;;;;13.13;7.85;;;;;;;5.00;57.58;103881.16;5030847;28;20492;-62
2022/03/18 02:40:02;;;;;;;14.05;8.45;;;;;;;5.04;57.02;103892.75;5028048;28;20116;-62
2022/03/18 02:42:30;;;;;;;14.35;7.90;;;;;;;4.95;57.18;103891.69;5028228;28;20037;-62
2022/03/18 02:44:55;;;;;;;16.33;8.57;;;;;;;4.90;57.20;103894.00;5016857;28;20041;-60
2022/03/18 02:47:21;;;;;;;12.13;8.25;;;;;;;4.92;57.43;103895.63;5033612;28;20110;-62
2022/03/18 02:49:46;;;;;;;14.23;8.10;;;;;;;4.89;57.16;103897.78;5034200;28;20025;-60
2022/03/18 02:52:11;;;;;;;14.95;7.80;;;;;;;4.89;57.08;103886.78;5032182;28;20032;-61
2022/03/18 02:54:37;;;;;;;12.55;8.02;;;;;;;4.87;56.56;103894.28;5034016;28;20373;-61
2022/03/18 02:57:02;;;;;;;13.45;8.10;;;;;;;4.83;57.02;103898.34;5032933;28;20025;-62
2022/03/18 02:59:27;;;;;;;17.25;8.50;;;;;;;4.81;57.13;103894.88;5031856;28;20045;-61
2022/03/18 03:01:52;;;;;;;16.45;8.10;;;;;;;4.82;56.97;103902.09;5034483;28;20042;-61
2022/03/18 03:04:18;;;;;;;13.07;7.90;;;;;;;4.79;56.97;103911.50;5033998;28;20163;-62
2022/03/18 03:09:27;;;;;;;14.55;8.15;;;;;;;4.72;57.11;103917.75;5034105;28;20106;-61
2022/03/18 03:11:53;;;;;;;11.45;7.68;;;;;;;4.67;57.45;103912.63;5033332;28;20096;-62
2022/03/18 03:14:18;;;;;;;17.30;8.68;;;;;;;4.65;57.04;103914.66;5032222;28;20029;-62
2022/03/18 03:16:44;;;;;;;15.93;8.43;;;;;;;4.58;57.50;103922.59;5033024;28;20142;-61
2022/03/18 03:19:09;;;;;;;15.82;8.20;;;;;;;4.56;57.44;103923.72;5033074;28;20779;-62
2022/03/18 03:21:37;;;;;;;15.70;8.15;;;;;;;4.54;57.38;103920.25;5032403;28;20112;-62
2022/03/18 03:24:03;;;;;;;13.18;8.15;;;;;;;4.53;57.34;103924.03;5028716;28;20025;-61
2022/03/18 03:26:28;;;;;;;12.93;8.02;;;;;;;4.51;57.21;103921.38;5032370;28;20044;-62
2022/03/18 03:28:53;;;;;;;16.70;8.52;;;;;;;4.50;57.40;103925.16;5031642;28;20389;-61
2022/03/18 03:31:19;;;;;;;13.45;8.48;;;;;;;4.48;57.37;103940.94;5031737;28;20501;-61
2022/03/18 03:33:44;;;;;;;10.88;7.82;;;;;;;4.46;57.66;103933.84;5032281;28;20022;-62
2022/03/18 03:36:09;;;;;;;12.15;7.85;;;;;;;4.41;57.76;103924.09;5019756;28;20041;-61
2022/03/18 03:38:35;;;;;;;12.07;7.60;;;;;;;4.45;58.10;103927.47;5033015;28;20022;-61
2022/03/18 03:41:00;;;;;;;13.60;8.25;;;;;;;4.43;57.94;103918.47;5021516;28;20037;-61
2022/03/18 03:43:25;;;;;;;12.70;8.00;;;;;;;4.49;57.90;103931.69;5028897;28;20116;-61
2022/03/18 03:45:51;;;;;;;13.13;7.60;;;;;;;4.48;57.70;103937.28;5031658;28;20038;-61
2022/03/18 03:48:16;;;;;;;14.43;7.80;;;;;;;4.43;57.57;103941.31;5031406;28;20025;-61
2022/03/18 03:50:41;;;;;;;16.63;7.72;;;;;;;4.42;57.62;103952.47;5017252;28;20026;-61
2022/03/18 03:53:08;;;;;;;10.15;7.85;;;;;;;4.38;57.50;103948.25;5025765;28;20042;-61
2022/03/18 03:55:40;;;;;;;13.07;7.53;;;;;;;4.36;58.10;103944.75;5029212;28;20029;-61
2022/03/18 03:58:07;;;;;;;11.73;6.95;;;;;;;4.34;58.26;103947.66;5028915;28;20037;-61
2022/03/18 04:00:33;;;;;;;14.23;8.25;;;;;;;4.29;57.93;103944.47;5031505;28;20053;-61
2022/03/18 04:02:58;;;;;;;18.27;8.60;;;;;;;4.28;57.94;103944.56;5027926;28;20079;-61
2022/03/18 04:05:23;;;;;;;13.98;7.93;;;;;;;4.26;58.20;103963.97;5031382;28;20033;-61
2022/03/18 04:07:49;;;;;;;11.40;6.95;;;;;;;4.31;58.22;103964.44;5028023;28;20182;-61
2022/03/18 04:10:14;;;;;;;11.90;8.02;;;;;;;4.34;58.11;103969.66;5023757;28;20031;-61
2022/03/18 04:12:49;;;;;;;14.18;7.55;;;;;;;4.29;57.63;103971.97;5027412;28;20025;-62
2022/03/18 04:15:14;;;;;;;9.73;6.70;;;;;;;4.27;57.82;103970.34;5031656;28;20028;-62
2022/03/18 04:17:44;;;;;;;15.68;8.18;;;;;;;4.28;58.17;103974.81;5031304;28;20026;-63
2022/03/18 04:20:15;;;;;;;14.40;7.25;;;;;;;4.25;58.12;103975.13;5031664;28;20167;-62
2022/03/18 04:22:40;;;;;;;13.68;7.70;;;;;;;4.25;58.30;103977.88;5030345;28;20032;-63
2022/03/18 04:25:06;;;;;;;10.40;6.90;;;;;;;4.23;57.93;103983.47;5030296;28;20560;-62
2022/03/18 04:27:33;;;;;;;11.75;6.82;;;;;;;4.22;58.17;103990.00;5022074;28;20538;-62
2022/03/18 04:29:58;;;;;;;9.93;6.80;;;;;;;4.19;58.02;103991.13;5030227;28;20389;-63
2022/03/18 04:32:26;;;;;;;10.98;6.47;;;;;;;4.21;58.46;103992.88;5031975;28;20033;-62
2022/03/18 04:34:51;;;;;;;9.88;7.32;;;;;;;4.15;58.48;103997.03;5031270;28;20021;-62
2022/03/18 04:37:17;;;;;;;12.70;6.90;;;;;;;4.21;58.56;103996.50;5029196;28;20029;-62
2022/03/18 04:39:42;;;;;;;12.10;6.70;;;;;;;4.23;58.07;104001.84;5032250;28;20110;-61
2022/03/18 04:42:08;;;;;;;14.43;7.03;;;;;;;4.17;58.22;104011.53;5025755;28;20998;-61
2022/03/18 04:44:33;;;;;;;16.17;6.68;;;;;;;4.15;58.63;104003.41;5031661;28;20146;-62
2022/03/18 04:46:58;;;;;;;8.15;6.97;;;;;;;4.09;58.22;103998.44;5031764;28;20032;-62
2022/03/18 04:49:24;;;;;;;15.85;6.50;;;;;;;4.09;58.36;104000.31;5032106;28;20393;-62
2022/03/18 04:51:49;;;;;;;14.52;7.25;;;;;;;4.08;58.62;104002.19;5031302;28;20029;-63
2022/03/18 04:54:14;;;;;;;11.00;6.40;;;;;;;4.02;58.29;103999.97;5032025;28;20025;-63
2022/03/18 04:59:24;;;;;;;11.55;6.95;;;;;;;3.98;58.24;104012.25;5031345;28;20083;-60
2022/03/18 05:01:49;;;;;;;11.43;6.40;;;;;;;3.98;58.54;104011.38;5031313;28;20112;-62
2022/03/18 05:04:15;;;;;;;12.82;7.03;;;;;;;3.96;58.34;104016.13;5027940;28;20385;-63
2022/03/18 05:06:40;;;;;;;11.95;6.97;;;;;;;3.97;58.71;104015.09;5028879;28;20041;-63
2022/03/18 05:09:06;;;;;;;14.25;7.30;;;;;;;3.94;58.68;104025.38;5023694;28;20030;-62
2022/03/18 05:11:31;;;;;;;10.02;7.00;;;;;;;3.92;58.95;104023.75;5030758;28;20064;-62
2022/03/18 05:13:59;;;;;;;11.85;7.10;;;;;;;3.90;58.72;104034.88;5029611;28;20439;-62
2022/03/18 05:16:31;;;;;;;11.75;7.35;;;;;;;3.84;58.51;104032.66;5029830;28;20473;-62
2022/03/18 05:18:57;;;;;;;10.70;7.38;;;;;;;3.87;58.60;104037.88;5025739;28;20033;-62
2022/03/18 05:21:22;;;;;;;14.98;7.93;;;;;;;3.82;58.45;104042.03;5029440;28;20468;-62
2022/03/18 05:23:47;;;;;;;14.40;7.90;;;;;;;3.82;59.26;104044.78;5030905;28;20083;-62
2022/03/18 05:26:13;;;;;;;12.77;7.78;;;;;;;3.77;59.26;104041.53;5026459;28;20457;-60
2022/03/18 05:28:39;;;;;;;16.10;7.50;;;;;;;3.80;59.30;104046.78;5029390;28;20033;-63
2022/03/18 05:31:04;;;;;;;12.40;7.20;;;;;;;3.77;58.75;104047.03;5030971;28;20365;-63
2022/03/18 05:33:30;;;;;;;13.35;6.65;;;;;;;3.77;59.11;104049.78;5020942;28;20021;-63
2022/03/18 05:35:55;;;;;;;11.48;7.10;;;;;;;3.77;59.22;104052.53;5016883;28;20026;-62
2022/03/18 05:38:20;;;;;;;15.20;7.13;;;;;;;3.78;59.14;104052.41;5028533;28;20065;-62
2022/03/18 05:40:46;;;;;;;15.50;7.60;;;;;;;3.72;59.43;104044.69;5030107;28;20026;-62
2022/03/18 05:43:18;;;;;;;13.73;7.72;;;;;;;3.71;59.87;104051.19;5029362;28;20071;-62
2022/03/18 05:45:43;;;;;;;11.87;7.97;;;;;;;3.70;59.20;104052.19;5016896;28;20048;-62
2022/03/18 05:48:09;;;;;;;12.93;7.32;;;;;;;3.71;59.55;104050.31;5012787;28;20045;-62
2022/03/18 05:50:38;;;;;;;14.38;8.48;;;;;;;3.68;59.65;104046.81;5030136;28;20040;-62
2022/03/18 05:53:04;;;;;;;18.60;8.30;;;;;;;3.69;59.28;104050.44;5030749;28;20108;-62
2022/03/18 05:58:14;;;;;;;17.20;9.20;;;;;;;3.72;60.00;104046.56;5029728;28;20053;-61
2022/03/18 06:00:41;;;;;;;14.55;8.65;;;;;;;3.74;59.95;104050.06;5028528;28;20037;-61
2022/03/18 06:03:07;;;;;;;13.85;8.95;;;;;;;3.78;59.90;104059.78;5027070;28;20112;-62
2022/03/18 06:05:32;;;;;;;19.98;9.38;;;;;;;3.76;59.90;104070.03;5028794;28;21486;-61
2022/03/18 06:11:48;;;;;;;17.25;9.88;;;;;;;3.76;59.50;104073.63;5029239;28;20086;-61
2022/03/18 06:13:26;;;;;;;19.48;10.25;;;;;;;3.78;59.62;104076.28;5026387;28;20044;-62
2022/03/18 06:15:52;;;;;;;17.85;10.02;;;;;;;3.81;60.08;104076.00;5033186;28;20025;-62
2022/03/18 06:18:17;;;;;;;15.05;9.57;;;;;;;3.77;60.34;104080.88;5030079;28;20469;-62
2022/03/18 06:20:49;;;;;;;12.80;8.52;;;;;;;3.84;59.91;104082.09;5032768;28;20034;-62
2022/03/18 06:23:15;;;;;;;15.40;9.18;;;;;;;3.86;59.68;104093.00;5032588;28;20037;-62
2022/03/18 06:25:41;;;;;;;13.52;9.02;;;;;;;3.82;59.83;104097.88;5031398;28;20140;-62
2022/03/18 06:28:06;;;;;;;13.73;8.45;;;;;;;3.91;61.34;104102.56;5031239;28;20570;-62
2022/03/18 06:30:32;;;;;;;11.52;9.35;;;;;;;3.90;60.10;104106.34;5031780;28;20033;-62
2022/03/18 06:33:00;;;;;;;14.93;9.70;;;;;;;3.89;60.55;104107.34;5032575;28;20030;-61
2022/03/18 06:35:25;;;;;;;21.15;10.95;;;;;;;3.91;60.71;104105.31;5023689;28;20034;-61
2022/03/18 06:37:51;;;;;;;20.65;9.90;;;;;;;3.92;60.73;104097.94;5025736;28;20030;-62
2022/03/18 06:40:16;;;;;;;21.15;10.68;;;;;;;3.98;60.74;104102.06;5027507;28;20094;-61
2022/03/18 06:42:41;;;;;;;18.30;9.73;;;;;;;3.96;61.10;104104.06;5029805;28;20033;-62
2022/03/18 06:45:07;;;;;;;18.90;9.80;;;;;;;4.00;60.92;104109.16;5023658;28;20046;-62
2022/03/18 06:47:32;;;;;;;13.50;8.70;;;;;;;4.00;60.90;104106.41;5029014;28;20045;-63
2022/03/18 06:49:58;;;;;;;18.42;9.27;;;;;;;4.05;61.11;104117.00;5030162;28;20033;-63
2022/03/18 06:52:24;;;;;;;16.90;9.48;;;;;;;4.10;61.35;104129.38;5017672;28;20061;-62
2022/03/18 06:54:50;;;;;;;16.50;10.32;;;;;;;4.13;61.73;104123.63;5023883;28;20057;-63
2022/03/18 06:57:15;;;;;;;17.80;9.98;;;;;;;4.17;61.53;104132.50;5028798;28;20060;-62
2022/03/18 06:59:40;;;;;;;15.88;10.18;;;;;;;4.19;61.92;104128.59;5032214;28;20067;-61
2022/03/18 07:02:06;;;;;;;18.88;10.30;;;;;;;4.24;61.71;104133.69;5028291;28;20483;-63
2022/03/18 07:04:31;;;;;;;16.38;10.45;;;;;;;4.25;62.47;104129.97;5021891;28;20481;-63
2022/03/18 07:06:56;;;;;;;17.48;9.95;;;;;;;4.30;62.50;104129.56;5024252;28;20528;-62
2022/03/18 07:09:24;;;;;;;20.25;10.57;;;;;;;4.35;62.39;104130.03;5017683;28;20046;-63
2022/03/18 07:11:56;;;;;;;18.88;10.20;;;;;;;4.41;62.96;104138.63;5021231;28;20140;-62
2022/03/18 07:14:21;;;;;;;20.05;10.63;;;;;;;4.51;62.78;104137.84;5029902;28;20036;-61
2022/03/18 07:19:30;;;;;;;18.67;10.55;;;;;;;4.75;62.33;104132.06;5027888;28;20618;-61
2022/03/18 07:21:55;;;;;;;21.63;11.18;;;;;;;4.87;62.40;104136.50;5026690;28;20029;-61
2022/03/18 07:24:21;;;;;;;20.83;11.93;;;;;;;4.95;62.19;104136.69;5024541;28;20102;-61
2022/03/18 07:26:46;;;;;;;19.88;12.20;;;;;;;5.08;62.27;104144.75;5027486;28;20045;-62
2022/03/18 07:29:11;;;;;;;21.13;11.57;;;;;;;5.15;62.30;104146.84;5023056;28;20084;-62
2022/03/18 07:31:36;;;;;;;22.55;11.82;;;;;;;5.25;62.95;104148.75;5026046;28;20041;-60
2022/03/18 07:34:02;;;;;;;24.25;11.77;;;;;;;5.32;62.94;104145.31;5023511;28;20025;-61
2022/03/18 07:36:27;;;;;;;26.30;11.10;;;;;;;5.42;62.92;104142.59;5029745;28;20487;-62
2022/03/18 07:38:52;;;;;;;23.23;11.20;;;;;;;5.51;63.24;104155.56;5021431;28;20709;-63
2022/03/18 07:41:23;;;;;;;19.60;10.27;;;;;;;5.64;63.28;104156.16;5022836;28;20037;-63
2022/03/18 07:43:49;;;;;;;50.88;10.57;;;;;;;6.04;66.89;104171.84;5028359;28;20060;-60
2022/03/18 07:46:14;;;;;;;22.20;10.55;;;;;;;6.05;63.13;104168.09;5025825;28;20039;-62
2022/03/18 07:48:43;;;;;;;21.20;10.10;;;;;;;6.15;62.33;104165.34;5024706;28;20393;-60
2022/03/18 07:51:08;;;;;;;25.20;11.25;;;;;;;6.21;62.50;104178.56;5030559;28;20025;-61
2022/03/18 07:53:33;;;;;;;22.20;10.10;;;;;;;6.32;62.10;104188.59;5028548;28;20039;-61
2022/03/18 07:55:59;;;;;;;19.85;10.18;;;;;;;6.46;61.89;104192.81;5021974;28;20026;-61
2022/03/18 07:58:24;;;;;;;19.25;10.95;;;;;;;6.54;62.80;104188.31;5015507;28;20416;-61
2022/03/18 08:00:51;;;;;;;18.92;9.80;;;;;;;6.62;62.64;104193.13;5030696;28;20388;-61
2022/03/18 08:03:17;;;;;;;20.77;10.63;;;;;;;6.75;62.44;104203.84;5020217;28;20093;-61
2022/03/18 08:05:43;;;;;;;21.48;10.90;;;;;;;6.87;61.93;104191.63;5029454;28;20041;-61
2022/03/18 08:08:08;;;;;;;19.92;10.10;;;;;;;7.03;61.98;104202.09;5031081;28;20392;-60
2022/03/18 08:10:35;;;;;;;27.48;11.05;;;;;;;7.18;61.83;104196.97;5031286;28;20037;-60
2022/03/18 08:13:04;;;;;;;18.92;9.82;;;;;;;7.30;61.39;104188.34;5030562;28;20481;-61
2022/03/18 08:15:29;;;;;;;17.67;10.15;;;;;;;7.47;61.08;104196.91;5030539;28;20029;-61
2022/03/18 08:17:54;;;;;;;17.40;9.93;;;;;;;7.62;60.97;104201.81;5018619;28;20044;-60
2022/03/18 08:20:21;;;;;;;16.38;9.82;;;;;;;7.80;61.05;104207.38;5019727;28;20122;-60
2022/03/18 08:22:48;;;;;;;19.15;9.30;;;;;;;7.92;60.72;104205.28;5010447;28;20116;-61
2022/03/18 08:25:16;;;;;;;15.55;8.77;;;;;;;8.10;60.22;104211.75;5021032;28;20033;-62
2022/03/18 08:27:42;;;;;;;18.33;8.60;;;;;;;8.23;59.64;104205.84;5018641;28;20103;-62
2022/03/18 08:30:09;;;;;;;19.60;7.75;;;;;;;8.39;58.25;104204.31;5035426;28;20049;-62
2022/03/18 08:32:34;;;;;;;14.95;7.93;;;;;;;8.50;58.21;104204.94;5026252;28;20133;-61
2022/03/18 08:35:00;;;;;;;12.63;7.38;;;;;;;8.65;57.27;104212.72;5029575;28;20044;-61
2022/03/18 08:40:11;;;;;;;15.40;7.45;;;;;;;8.92;56.65;104218.16;5024446;28;20512;-60
2022/03/18 08:42:37;;;;;;;18.63;7.40;;;;;;;9.08;56.93;104217.44;5026198;28;20142;-62
2022/03/18 08:45:06;;;;;;;16.40;7.10;;;;;;;9.22;55.86;104222.38;5030993;28;20039;-60
2022/03/18 08:47:31;;;;;;;12.60;7.43;;;;;;;9.37;55.64;104222.66;5040177;28;20044;-59
2022/03/18 08:49:57;;;;;;;14.32;7.30;;;;;;;9.51;55.56;104227.63;5024231;28;20037;-60
2022/03/18 08:52:22;;;;;;;14.13;8.07;;;;;;;9.64;55.54;104235.47;5025403;28;20037;-60
2022/03/18 08:54:50;;;;;;;17.48;7.70;;;;;;;9.77;55.16;104240.56;5027789;28;20025;-60
2022/03/18 08:57:16;;;;;;;11.57;7.13;;;;;;;9.89;54.60;104253.13;5020616;28;20040;-61
2022/03/18 08:59:42;;;;;;;18.00;6.97;;;;;;;9.95;52.84;104255.25;5030531;28;20045;-61
2022/03/18 09:02:08;;;;;;;14.43;6.90;;;;;;;10.06;52.38;104243.84;5032663;28;20017;-60
2022/03/18 09:04:33;;;;;;;11.20;6.05;;;;;;;10.19;51.19;104253.63;5017351;28;20374;-60
2022/03/18 09:06:59;;;;;;;13.18;5.40;;;;;;;10.24;50.62;104253.97;5030193;28;20063;-60
2022/03/18 09:09:24;;;;;;;11.57;5.72;;;;;;;10.33;49.15;104266.88;5030187;28;20543;-60
2022/03/18 09:11:49;;;;;;;12.40;5.68;;;;;;;10.41;49.81;104264.13;5026763;28;20025;-61
2022/03/18 09:14:14;;;;;;;14.90;5.45;;;;;;;10.49;50.05;104264.16;5029273;28;20060;-59
2022/03/18 09:16:40;;;;;;;18.50;6.20;;;;;;;10.54;50.91;104261.75;5023307;28;20033;-60
2022/03/18 09:19:06;;;;;;;11.88;5.15;;;;;;;10.66;50.24;104273.41;5029629;28;20021;-60
2022/03/18 09:21:32;;;;;;;10.95;5.60;;;;;;;10.73;49.61;104271.69;5016397;28;20539;-60
2022/03/18 09:23:57;;;;;;;15.07;5.63;;;;;;;10.83;49.03;104263.19;5043482;28;20033;-60
2022/03/18 09:26:23;;;;;;;15.75;5.65;;;;;;;10.96;47.82;104271.88;5029647;28;20029;-60
2022/03/18 09:28:48;;;;;;;11.10;5.95;;;;;;;11.00;47.45;104269.63;5022021;28;20088;-60
2022/03/18 09:31:16;;;;;;;13.82;5.75;;;;;;;11.13;47.34;104274.69;5026066;28;20025;-60
2022/03/18 09:33:46;;;;;;;7.75;5.10;;;;;;;11.19;47.57;104279.53;5023584;28;20056;-60
2022/03/18 09:36:12;;;;;;;12.55;5.50;;;;;;;11.25;47.01;104278.84;5030283;28;20037;-61
2022/03/18 09:38:37;;;;;;;15.57;5.65;;;;;;;11.28;47.61;104278.50;5030622;28;20160;-62
2022/03/18 09:41:05;;;;;;;13.88;5.43;;;;;;;11.44;47.38;104280.41;5029084;28;20021;-60
2022/03/18 09:43:36;;;;;;;9.93;5.35;;;;;;;11.48;46.88;104285.44;5011515;28;20389;-61
2022/03/18 09:46:06;;;;;;;10.95;4.70;;;;;;;11.54;45.64;104289.41;5022250;28;20463;-61
2022/03/18 09:48:34;;;;;;;10.40;4.70;;;;;;;11.59;45.45;104281.41;5028957;28;20543;-62
2022/03/18 09:51:00;;;;;;;9.98;4.97;;;;;;;11.63;45.61;104276.34;5034276;28;20475;-61
2022/03/18 09:53:28;;;;;;;10.15;4.30;;;;;;;11.68;44.91;104285.94;5029312;28;20025;-61
2022/03/18 09:55:54;;;;;;;8.63;4.00;;;;;;;11.75;43.95;104281.41;5030771;28;20091;-61
2022/03/18 09:58:21;;;;;;;10.10;4.50;;;;;;;11.78;44.44;104285.72;5022988;28;20037;-61
2022/03/18 10:00:49;;;;;;;8.43;4.13;;;;;;;11.78;43.07;104272.69;5026295;28;20069;-61
2022/03/18 10:03:16;;;;;;;11.38;3.92;;;;;;;11.83;43.12;104288.91;5028933;28;20037;-61
2022/03/18 10:06:00;;;;;;;11.27;4.40;;;;;;;11.90;43.36;104287.13;5033745;28;20036;-61
2022/03/18 10:08:55;;;;;;;6.93;4.22;;;;;;;12.02;44.75;104288.50;5035911;28;20035;-60
2022/03/18 10:11:26;;;;;;;8.10;3.40;;;;;;;12.05;42.62;104295.59;5052847;28;20033;-61
2022/03/18 10:13:51;;;;;;;6.95;3.25;;;;;;;12.06;42.31;104300.13;5050921;28;20029;-62
2022/03/18 10:16:31;;;;;;;7.38;3.47;;;;;;;12.08;43.53;104303.59;5053940;28;20376;-62
2022/03/18 10:18:56;;;;;;;8.85;3.55;;;;;;;12.10;42.11;104303.41;5033595;28;20500;-62
2022/03/18 10:21:21;;;;;;;7.07;3.95;;;;;;;12.09;42.65;104296.13;5028223;28;20124;-61
2022/03/18 10:23:46;;;;;;;9.45;3.70;;;;;;;12.14;42.09;104302.00;5032333;28;20037;-61
2022/03/18 10:26:15;;;;;;;8.15;3.50;;;;;;;12.18;42.14;104295.03;5030861;28;20392;-61
2022/03/18 10:28:41;;;;;;;10.45;3.83;;;;;;;12.24;42.84;104299.88;5029311;28;20037;-61
2022/03/18 10:31:11;;;;;;;11.52;3.80;;;;;;;12.31;42.76;104297.25;5050658;28;20025;-61
2022/03/18 10:37:04;;;;;;;7.95;3.22;;;;;;;12.33;43.07;104290.44;5039008;28;20033;-61
2022/03/18 10:39:25;;;;;;;7.78;3.05;;;;;;;12.41;42.38;104301.53;5021690;28;20565;-61
2022/03/18 10:41:51;;;;;;;9.48;3.10;;;;;;;12.45;41.41;104302.91;5030644;28;20503;-61
2022/03/18 10:44:17;;;;;;;8.88;3.05;;;;;;;12.40;40.93;104299.81;5027784;28;20021;-61
2022/03/18 10:46:43;;;;;;;7.55;3.13;;;;;;;12.52;41.52;104289.13;5027962;28;20071;-61
2022/03/18 10:49:10;;;;;;;7.45;3.00;;;;;;;12.58;41.15;104293.13;5032381;28;20744;-60
2022/03/18 10:51:36;;;;;;;7.53;2.90;;;;;;;12.63;40.72;104296.22;5014150;28;20034;-61
2022/03/18 10:54:05;;;;;;;9.13;3.15;;;;;;;12.63;40.99;104296.22;5013008;28;20034;-62
2022/03/18 10:56:57;;;;;;;8.10;2.50;;;;;;;12.67;42.07;104292.88;5030286;28;20108;-62
2022/03/18 10:59:26;;;;;;;9.10;2.90;;;;;;;12.70;40.11;104291.66;5031667;28;20053;-62
2022/03/18 11:01:51;;;;;;;4.28;2.50;;;;;;;12.77;41.01;104287.06;5032637;28;20037;-61
2022/03/18 11:04:18;;;;;;;9.50;3.00;;;;;;;12.80;40.84;104297.84;5029767;28;20577;-60
2022/03/18 11:07:29;;;;;;;5.28;2.72;;;;;;;12.80;40.68;104303.41;5019906;28;20034;-60
2022/03/18 11:11:07;;;;;;;7.25;3.22;;;;;;;12.79;41.04;104290.53;5013388;28;20034;-60
2022/03/18 11:12:25;;;;;;;11.60;4.10;;;;;;;12.80;41.14;104292.28;5031757;28;20033;-61
2022/03/18 11:14:58;;;;;;;7.70;3.30;;;;;;;12.77;41.31;104295.41;5031441;28;20571;-61
2022/03/18 11:17:27;;;;;;;7.55;3.28;;;;;;;12.79;41.21;104284.97;5046106;28;20029;-61
2022/03/18 11:19:53;;;;;;;8.57;3.00;;;;;;;12.83;40.74;104291.03;5034538;28;20030;-61
2022/03/18 11:22:21;;;;;;;9.00;3.05;;;;;;;12.85;40.97;104281.47;5029107;28;20026;-61
2022/03/18 11:24:48;;;;;;;8.30;3.08;;;;;;;12.92;40.86;104273.19;5030274;28;20029;-61
2022/03/18 11:27:14;;;;;;;7.28;3.38;;;;;;;13.02;41.15;104277.47;5027919;28;20034;-61
2022/03/18 11:29:42;;;;;;;12.55;3.30;;;;;;;13.10;40.94;104281.25;5031642;28;20052;-62
2022/03/18 11:32:14;;;;;;;6.20;3.20;;;;;;;13.07;40.75;104281.63;5032523;28;20025;-62
2022/03/18 11:34:47;;;;;;;8.20;3.50;;;;;;;13.10;41.32;104278.47;5028500;28;20408;-62
2022/03/18 11:37:13;;;;;;;8.77;3.55;;;;;;;13.06;41.12;104282.69;5039916;28;20022;-62
2022/03/18 11:39:38;;;;;;;9.52;3.72;;;;;;;13.07;41.01;104290.00;5022094;28;20034;-61
2022/03/18 11:42:12;;;;;;;8.60;3.60;;;;;;;13.09;40.79;104282.34;5034653;28;20029;-61